Time;durP1;ratioP1;P1;durP2;ratioP2;P2;SDS_P1;SDS_P2;PMS_P1;PMS_P2;Temp;Humidity;BMP_temperature;BMP_pressure;BME280_temperature;BME280_humidity;BME280_pressure;Samples;Min_cycle;Max_cycle;Signal;HPM_P1;HPM_P2
2022/03/29 00:01:26;;;;;;;24.38;15.30;;;;;;;;;;5006282;28;20065;-70
2022/03/29 00:03:54;;;;;;;26.70;16.00;;;;;;;;;;5003994;28;20100;-70
2022/03/29 00:06:21;;;;;;;24.13;15.65;;;;;;;;;;5005330;28;20058;-70
2022/03/29 00:08:48;;;;;;;21.15;15.23;;;;;;;;;;5004686;28;20489;-70
2022/03/29 00:11:18;;;;;;;26.33;17.40;;;;;;;;;;4998447;28;20188;-70
2022/03/29 00:13:45;;;;;;;31.15;17.05;;;;;;;;;;5004925;28;20101;-70
2022/03/29 00:16:12;;;;;;;30.20;17.75;;;;;;;;;;5006320;28;20058;-70
2022/03/29 00:18:39;;;;;;;31.77;18.58;;;;;;;;;;5005210;28;20080;-70
2022/03/29 00:21:09;;;;;;;27.13;17.02;;;;;;;;;;5005140;28;20061;-70
2022/03/29 00:23:37;;;;;;;27.30;17.20;;;;;;;;;;5023223;28;20049;-70
2022/03/29 00:26:04;;;;;;;25.45;16.38;;;;;;;;;;5002384;28;20060;-70
2022/03/29 00:28:32;;;;;;;27.90;16.02;;;;;;;;;;5006535;28;20054;-70
2022/03/29 00:31:00;;;;;;;26.88;17.70;;;;;;;;;;5023120;28;20049;-70
2022/03/29 00:33:27;;;;;;;30.20;16.65;;;;;;;;;;4998516;28;20065;-70
2022/03/29 00:35:54;;;;;;;25.23;15.50;;;;;;;;;;5004949;28;20108;-70
2022/03/29 00:38:21;;;;;;;28.45;16.48;;;;;;;;;;5005336;28;20065;-70
2022/03/29 00:40:48;;;;;;;29.55;17.40;;;;;;;;;;5004850;28;20070;-70
2022/03/29 00:43:16;;;;;;;23.70;16.10;;;;;;;;;;5007582;28;20101;-70
2022/03/29 00:45:45;;;;;;;27.10;16.05;;;;;;;;;;5003776;28;20100;-70
2022/03/29 00:48:13;;;;;;;30.63;16.92;;;;;;;;;;5005916;28;20141;-70
2022/03/29 00:50:41;;;;;;;27.55;18.02;;;;;;;;;;5004563;28;20054;-70
2022/03/29 00:53:09;;;;;;;29.58;17.45;;;;;;;;;;5003211;28;20819;-70
2022/03/29 00:55:37;;;;;;;29.20;18.10;;;;;;;;;;5003998;28;20501;-70
2022/03/29 00:58:06;;;;;;;35.83;19.55;;;;;;;;;;5007580;28;20052;-70
2022/03/29 01:00:34;;;;;;;30.88;18.35;;;;;;;;;;5004312;28;20050;-70
2022/03/29 01:03:03;;;;;;;32.20;17.90;;;;;;;;;;5021334;28;20061;-70
2022/03/29 01:05:30;;;;;;;28.52;17.27;;;;;;;;;;5007354;28;20050;-70
2022/03/29 01:07:58;;;;;;;29.55;18.58;;;;;;;;;;5017633;28;20053;-70
2022/03/29 01:10:25;;;;;;;28.77;18.42;;;;;;;;;;5002680;28;20058;-70
2022/03/29 01:12:53;;;;;;;34.35;19.25;;;;;;;;;;5002582;28;20512;-70
2022/03/29 01:15:21;;;;;;;34.20;18.58;;;;;;;;;;5018557;28;20057;-70
2022/03/29 01:17:47;;;;;;;31.52;19.42;;;;;;;;;;5006978;28;20053;-70
2022/03/29 01:20:18;;;;;;;29.52;18.33;;;;;;;;;;5001962;28;20065;-70
2022/03/29 01:22:48;;;;;;;28.15;18.27;;;;;;;;;;5002529;28;20069;-70
2022/03/29 01:25:17;;;;;;;30.52;18.90;;;;;;;;;;5003162;28;20053;-70
2022/03/29 01:27:45;;;;;;;26.40;18.02;;;;;;;;;;5005766;28;20765;-70
2022/03/29 01:30:14;;;;;;;31.70;17.83;;;;;;;;;;5004619;28;20054;-70
2022/03/29 01:32:41;;;;;;;32.78;18.88;;;;;;;;;;5010359;28;20093;-70
2022/03/29 01:35:09;;;;;;;26.42;18.52;;;;;;;;;;5009793;28;20053;-70
2022/03/29 01:37:36;;;;;;;29.70;18.25;;;;;;;;;;5007863;28;20050;-70
2022/03/29 01:40:10;;;;;;;32.28;18.15;;;;;;;;;;5011612;28;20050;-70
2022/03/29 01:42:37;;;;;;;35.10;19.25;;;;;;;;;;5008282;28;20152;-70
2022/03/29 01:45:04;;;;;;;31.75;17.80;;;;;;;;;;5007399;28;20413;-70
2022/03/29 01:47:32;;;;;;;31.95;17.15;;;;;;;;;;5003799;28;20115;-70
2022/03/29 01:49:59;;;;;;;30.48;18.00;;;;;;;;;;5003989;28;20079;-70
2022/03/29 01:52:26;;;;;;;34.63;17.88;;;;;;;;;;5008166;28;20064;-70
2022/03/29 01:54:53;;;;;;;27.00;18.15;;;;;;;;;;5010021;28;20129;-70
2022/03/29 01:57:27;;;;;;;31.45;18.77;;;;;;;;;;5007650;28;20062;-70
2022/03/29 02:02:39;;;;;;;33.53;19.05;;;;;;;;;;5005960;28;20432;-70
2022/03/29 02:05:07;;;;;;;31.67;19.75;;;;;;;;;;5002240;28;20057;-70
2022/03/29 02:07:34;;;;;;;36.33;19.10;;;;;;;;;;5010477;28;20053;-70
2022/03/29 02:10:01;;;;;;;33.70;21.05;;;;;;;;;;5004995;28;20560;-70
2022/03/29 02:12:30;;;;;;;38.72;20.48;;;;;;;;;;5002252;28;20060;-70
2022/03/29 02:14:57;;;;;;;36.00;20.38;;;;;;;;;;5004267;28;20042;-70
2022/03/29 02:17:24;;;;;;;35.58;20.27;;;;;;;;;;5000067;28;20049;-70
2022/03/29 02:19:52;;;;;;;35.75;20.30;;;;;;;;;;5006395;28;20053;-70
2022/03/29 02:22:19;;;;;;;33.53;20.67;;;;;;;;;;5003170;28;20058;-70
2022/03/29 02:24:46;;;;;;;34.30;20.00;;;;;;;;;;5005204;28;20078;-70
2022/03/29 02:27:13;;;;;;;30.05;19.55;;;;;;;;;;5003526;28;20497;-70
2022/03/29 02:29:42;;;;;;;36.72;20.50;;;;;;;;;;5002232;28;20065;-70
2022/03/29 02:32:10;;;;;;;31.85;20.08;;;;;;;;;;5004936;28;20062;-70
2022/03/29 02:34:37;;;;;;;35.58;21.00;;;;;;;;;;5023526;28;20445;-70
2022/03/29 02:37:05;;;;;;;36.38;20.65;;;;;;;;;;5008325;28;20061;-70
2022/03/29 02:39:32;;;;;;;32.25;20.02;;;;;;;;;;5006667;28;20196;-70
2022/03/29 02:41:59;;;;;;;32.95;19.17;;;;;;;;;;5007419;28;20054;-70
2022/03/29 02:44:27;;;;;;;34.40;19.90;;;;;;;;;;5006858;28;20057;-70
2022/03/29 02:46:56;;;;;;;38.53;19.15;;;;;;;;;;5004140;28;20085;-70
2022/03/29 02:49:24;;;;;;;34.65;18.60;;;;;;;;;;5004759;28;20496;-70
2022/03/29 02:51:52;;;;;;;30.05;18.38;;;;;;;;;;5006037;28;20049;-70
2022/03/29 02:54:20;;;;;;;32.78;20.17;;;;;;;;;;5011025;28;20629;-70
2022/03/29 02:56:47;;;;;;;38.80;21.77;;;;;;;;;;5006625;28;20093;-70
2022/03/29 02:59:14;;;;;;;35.30;19.90;;;;;;;;;;5005878;28;20080;-70
2022/03/29 03:01:41;;;;;;;29.73;18.88;;;;;;;;;;5004298;28;20058;-70
2022/03/29 03:04:13;;;;;;;33.25;19.58;;;;;;;;;;4997569;28;20436;-70
2022/03/29 03:06:40;;;;;;;33.03;19.55;;;;;;;;;;5006078;28;20073;-70
2022/03/29 03:09:08;;;;;;;30.30;18.50;;;;;;;;;;5004001;28;20132;-70
2022/03/29 03:11:36;;;;;;;34.30;19.77;;;;;;;;;;5004540;28;20053;-70
2022/03/29 03:14:03;;;;;;;39.30;19.92;;;;;;;;;;5006251;28;20085;-70
2022/03/29 03:16:30;;;;;;;46.53;20.90;;;;;;;;;;5006793;28;20128;-70
2022/03/29 03:18:57;;;;;;;38.33;21.42;;;;;;;;;;5009251;28;20545;-70
2022/03/29 03:21:26;;;;;;;39.35;22.58;;;;;;;;;;5009487;28;20054;-70
2022/03/29 03:23:53;;;;;;;43.33;23.10;;;;;;;;;;5007683;28;20057;-70
2022/03/29 03:26:21;;;;;;;36.92;23.17;;;;;;;;;;5005990;28;20081;-70
2022/03/29 03:28:48;;;;;;;37.85;22.58;;;;;;;;;;5004478;28;20103;-70
2022/03/29 03:31:15;;;;;;;39.85;22.67;;;;;;;;;;5006653;28;20050;-70
2022/03/29 03:33:42;;;;;;;36.20;21.27;;;;;;;;;;5008378;28;20065;-70
2022/03/29 03:36:10;;;;;;;35.60;22.55;;;;;;;;;;5006803;28;20081;-70
2022/03/29 03:38:38;;;;;;;38.22;23.42;;;;;;;;;;5006136;28;20144;-70
2022/03/29 03:41:05;;;;;;;37.17;22.52;;;;;;;;;;5019643;28;20149;-70
2022/03/29 03:43:33;;;;;;;37.35;22.52;;;;;;;;;;5009108;28;20054;-70
2022/03/29 03:46:00;;;;;;;39.85;20.75;;;;;;;;;;5008057;28;20045;-70
2022/03/29 03:48:27;;;;;;;39.33;23.75;;;;;;;;;;5006105;28;20512;-70
2022/03/29 03:50:55;;;;;;;39.30;23.70;;;;;;;;;;5006264;28;20054;-70
2022/03/29 03:53:23;;;;;;;35.72;21.75;;;;;;;;;;5006007;28;20804;-70
2022/03/29 03:55:52;;;;;;;40.22;22.83;;;;;;;;;;5004092;28;20428;-70
2022/03/29 03:58:19;;;;;;;43.20;22.48;;;;;;;;;;5004146;28;20163;-70
2022/03/29 04:00:46;;;;;;;39.90;23.20;;;;;;;;;;5004152;28;20061;-70
2022/03/29 04:03:13;;;;;;;36.65;21.60;;;;;;;;;;5005788;28;20053;-70
2022/03/29 04:05:41;;;;;;;39.08;22.63;;;;;;;;;;5007180;28;20097;-70
2022/03/29 04:08:08;;;;;;;39.17;21.98;;;;;;;;;;5005824;28;20058;-70
2022/03/29 04:10:35;;;;;;;41.50;24.27;;;;;;;;;;5017959;28;20125;-70
2022/03/29 04:13:04;;;;;;;43.53;22.42;;;;;;;;;;5000198;28;20400;-70
2022/03/29 04:15:31;;;;;;;41.22;23.35;;;;;;;;;;5001017;28;20050;-70
2022/03/29 04:18:00;;;;;;;39.10;21.75;;;;;;;;;;5021594;28;20049;-70
2022/03/29 04:20:29;;;;;;;45.08;24.00;;;;;;;;;;5007328;28;20085;-70
2022/03/29 04:22:56;;;;;;;44.25;23.88;;;;;;;;;;5005489;28;20060;-70
2022/03/29 04:25:23;;;;;;;40.08;23.48;;;;;;;;;;5003373;28;20471;-70
2022/03/29 04:27:50;;;;;;;47.72;25.17;;;;;;;;;;5005380;28;20197;-70
2022/03/29 04:30:19;;;;;;;41.42;24.45;;;;;;;;;;5005259;28;20516;-70
2022/03/29 04:32:46;;;;;;;45.25;23.88;;;;;;;;;;5001775;28;20119;-70
2022/03/29 04:35:13;;;;;;;40.28;22.77;;;;;;;;;;5005693;28;20049;-70
2022/03/29 04:37:40;;;;;;;46.20;25.35;;;;;;;;;;5006001;28;20793;-70
2022/03/29 04:40:09;;;;;;;41.20;22.55;;;;;;;;;;5006250;28;20497;-70
2022/03/29 04:42:42;;;;;;;44.60;23.85;;;;;;;;;;5001009;28;20149;-70
2022/03/29 04:45:10;;;;;;;;;;;;;;;;;;5005569;28;20046;-70
2022/03/29 04:47:38;;;;;;;40.53;23.35;;;;;;;;;;5003433;28;20008;-70
2022/03/29 04:50:06;;;;;;;42.50;22.95;;;;;;;;;;5004636;28;20050;-70
2022/03/29 04:52:33;;;;;;;39.05;23.17;;;;;;;;;;5000707;28;20124;-70
2022/03/29 04:55:00;;;;;;;42.92;23.38;;;;;;;;;;5004636;28;20058;-70
2022/03/29 04:57:28;;;;;;;45.47;22.27;;;;;;;;;;5003092;28;20050;-70
2022/03/29 04:59:55;;;;;;;40.15;23.50;;;;;;;;;;5005136;28;20046;-70
2022/03/29 05:02:23;;;;;;;41.50;23.95;;;;;;;;;;5005037;28;20385;-70
2022/03/29 05:04:52;;;;;;;44.25;23.08;;;;;;;;;;5006175;28;20061;-70
2022/03/29 05:07:19;;;;;;;42.08;22.60;;;;;;;;;;5002316;28;20107;-70
2022/03/29 05:09:46;;;;;;;39.58;23.85;;;;;;;;;;5009845;28;20049;-70
2022/03/29 05:12:13;;;;;;;44.88;25.05;;;;;;;;;;5013360;28;20061;-70
2022/03/29 05:14:40;;;;;;;43.30;23.05;;;;;;;;;;5020135;28;20045;-70
2022/03/29 05:17:08;;;;;;;53.15;24.80;;;;;;;;;;5010479;28;20053;-70
2022/03/29 05:19:35;;;;;;;45.67;23.80;;;;;;;;;;5008839;28;20066;-70
2022/03/29 05:22:04;;;;;;;46.10;24.83;;;;;;;;;;5005980;28;20049;-70
2022/03/29 05:24:31;;;;;;;42.92;25.40;;;;;;;;;;5002185;28;20072;-70
2022/03/29 05:26:58;;;;;;;43.95;24.98;;;;;;;;;;4997417;28;20452;-69
2022/03/29 05:29:28;;;;;;;44.17;24.65;;;;;;;;;;4996805;28;20050;-70
2022/03/29 05:31:56;;;;;;;44.17;24.45;;;;;;;;;;5016100;28;20061;-70
2022/03/29 05:34:23;;;;;;;41.95;23.33;;;;;;;;;;5005585;28;20107;-70
2022/03/29 05:36:50;;;;;;;57.80;25.67;;;;;;;;;;5004045;28;20378;-70
2022/03/29 05:39:19;;;;;;;49.20;26.75;;;;;;;;;;5005703;28;20112;-70
2022/03/29 05:41:46;;;;;;;56.20;26.98;;;;;;;;;;5005547;28;20642;-70
2022/03/29 05:44:13;;;;;;;44.70;25.85;;;;;;;;;;5004843;28;20109;-70
2022/03/29 05:49:26;;;;;;;53.35;26.48;;;;;;;;;;5005475;28;20185;-70
2022/03/29 05:51:53;;;;;;;55.70;27.20;;;;;;;;;;5008082;28;20054;-70
2022/03/29 05:54:22;;;;;;;47.88;25.83;;;;;;;;;;5008150;28;20058;-70
2022/03/29 05:56:49;;;;;;;51.17;26.00;;;;;;;;;;5005177;28;20046;-70
2022/03/29 05:59:16;;;;;;;49.85;24.90;;;;;;;;;;5023172;28;20057;-70
2022/03/29 06:01:43;;;;;;;52.58;26.42;;;;;;;;;;5006549;28;20057;-70
2022/03/29 06:04:11;;;;;;;46.17;26.70;;;;;;;;;;5003590;28;20489;-70
2022/03/29 06:06:40;;;;;;;49.25;27.20;;;;;;;;;;5005506;28;20565;-70
2022/03/29 06:09:07;;;;;;;45.95;26.10;;;;;;;;;;5006708;28;20072;-70
2022/03/29 06:11:37;;;;;;;48.30;27.05;;;;;;;;;;5005819;28;20540;-70
2022/03/29 06:14:04;;;;;;;49.78;27.60;;;;;;;;;;5027493;28;20089;-70
2022/03/29 06:16:31;;;;;;;50.65;27.58;;;;;;;;;;5005103;28;20168;-70
2022/03/29 06:18:59;;;;;;;46.75;25.25;;;;;;;;;;5005966;28;20673;-70
2022/03/29 06:21:26;;;;;;;55.80;28.27;;;;;;;;;;5007053;28;20057;-70
2022/03/29 06:23:53;;;;;;;42.55;24.75;;;;;;;;;;5004284;28;20053;-70
2022/03/29 06:26:20;;;;;;;47.35;26.05;;;;;;;;;;5000741;28;20073;-70
2022/03/29 06:28:49;;;;;;;53.28;27.95;;;;;;;;;;5004520;28;20053;-70
2022/03/29 06:31:16;;;;;;;49.75;26.30;;;;;;;;;;5001988;28;20073;-70
2022/03/29 06:33:43;;;;;;;46.22;26.65;;;;;;;;;;5002854;28;20046;-70
2022/03/29 06:36:11;;;;;;;54.95;27.10;;;;;;;;;;5007384;28;20053;-70
2022/03/29 06:38:39;;;;;;;46.40;26.50;;;;;;;;;;5004078;28;20128;-70
2022/03/29 06:41:06;;;;;;;56.60;27.58;;;;;;;;;;4998031;28;20050;-70
2022/03/29 06:43:34;;;;;;;51.42;27.75;;;;;;;;;;5015933;28;20497;-70
2022/03/29 06:46:03;;;;;;;53.45;28.67;;;;;;;;;;4998756;28;20053;-70
2022/03/29 06:48:30;;;;;;;51.50;28.85;;;;;;;;;;4997232;28;20058;-70
2022/03/29 06:50:58;;;;;;;50.03;27.27;;;;;;;;;;4996436;28;20047;-70
2022/03/29 06:53:25;;;;;;;56.88;27.38;;;;;;;;;;5008537;28;20054;-70
2022/03/29 06:55:52;;;;;;;46.72;26.33;;;;;;;;;;5007237;28;20058;-70
2022/03/29 06:58:20;;;;;;;48.88;27.65;;;;;;;;;;5001821;28;20053;-70
2022/03/29 07:00:47;;;;;;;57.95;27.55;;;;;;;;;;5006983;28;20057;-70
2022/03/29 07:03:16;;;;;;;41.80;24.58;;;;;;;;;;5007826;28;20050;-70
2022/03/29 07:05:46;;;;;;;45.72;26.30;;;;;;;;;;5006781;28;20045;-70
2022/03/29 07:08:16;;;;;;;50.22;26.50;;;;;;;;;;5006439;28;20065;-70
2022/03/29 07:13:29;;;;;;;50.33;26.45;;;;;;;;;;5022800;28;20048;-70
2022/03/29 07:15:56;;;;;;;51.90;24.27;;;;;;;;;;5025090;28;20830;-70
2022/03/29 07:18:24;;;;;;;49.22;25.95;;;;;;;;;;5006651;28;20065;-70
2022/03/29 07:20:52;;;;;;;46.30;24.08;;;;;;;;;;5006541;28;20064;-70
2022/03/29 07:23:19;;;;;;;48.65;25.75;;;;;;;;;;5006808;28;20089;-70
2022/03/29 07:25:46;;;;;;;44.30;24.20;;;;;;;;;;5005374;28;20053;-70
2022/03/29 07:28:14;;;;;;;44.97;23.13;;;;;;;;;;5002724;28;20524;-70
2022/03/29 07:30:43;;;;;;;40.95;23.35;;;;;;;;;;5007703;28;20057;-70
2022/03/29 07:33:11;;;;;;;42.53;23.98;;;;;;;;;;5009801;28;20521;-70
2022/03/29 07:35:40;;;;;;;47.50;24.50;;;;;;;;;;5006466;28;20386;-70
2022/03/29 07:38:09;;;;;;;45.25;24.65;;;;;;;;;;5006866;28;20137;-70
2022/03/29 07:40:37;;;;;;;50.05;25.35;;;;;;;;;;5016736;28;20407;-70
2022/03/29 07:43:05;;;;;;;48.85;24.45;;;;;;;;;;5009917;28;20050;-70
2022/03/29 07:45:32;;;;;;;39.80;22.60;;;;;;;;;;5021957;28;20060;-70
2022/03/29 07:48:02;;;;;;;47.50;23.27;;;;;;;;;;5007539;28;20088;-70
2022/03/29 07:50:29;;;;;;;44.17;22.33;;;;;;;;;;5003020;28;20093;-70
2022/03/29 07:52:59;;;;;;;45.05;24.55;;;;;;;;;;5006963;28;20104;-70
2022/03/29 07:55:27;;;;;;;44.20;22.92;;;;;;;;;;5003372;28;20050;-70
2022/03/29 07:57:54;;;;;;;47.10;22.42;;;;;;;;;;5005407;28;20116;-70
2022/03/29 08:00:33;;;;;;;42.38;23.17;;;;;;;;;;5020717;28;20054;-70
2022/03/29 08:03:02;;;;;;;42.60;21.98;;;;;;;;;;5021214;28;20135;-70
2022/03/29 08:05:29;;;;;;;44.80;22.13;;;;;;;;;;5002919;28;20046;-70
2022/03/29 08:07:58;;;;;;;42.58;22.65;;;;;;;;;;5006248;28;20042;-70
2022/03/29 08:10:27;;;;;;;54.53;24.15;;;;;;;;;;5003563;28;20092;-70
2022/03/29 08:12:55;;;;;;;50.97;23.15;;;;;;;;;;5006354;28;20135;-70
2022/03/29 08:15:22;;;;;;;45.72;22.95;;;;;;;;;;5007237;28;20140;-70
2022/03/29 08:17:50;;;;;;;49.20;22.55;;;;;;;;;;5011211;28;20042;-70
2022/03/29 08:20:17;;;;;;;46.65;22.75;;;;;;;;;;5005375;28;20077;-70
2022/03/29 08:22:46;;;;;;;39.63;21.88;;;;;;;;;;5009094;28;20103;-70
2022/03/29 08:25:15;;;;;;;52.28;20.88;;;;;;;;;;5006244;28;20058;-70
2022/03/29 08:27:43;;;;;;;49.28;21.90;;;;;;;;;;5004339;28;20061;-70
2022/03/29 08:30:11;;;;;;;46.20;22.02;;;;;;;;;;5004949;28;20062;-70
2022/03/29 08:32:38;;;;;;;42.08;21.40;;;;;;;;;;5004079;28;20495;-70
2022/03/29 08:35:06;;;;;;;45.70;22.98;;;;;;;;;;5005948;28;20077;-70
2022/03/29 08:37:35;;;;;;;49.42;20.73;;;;;;;;;;5001062;28;20394;-70
2022/03/29 08:40:02;;;;;;;47.20;21.02;;;;;;;;;;5005619;28;20464;-70
2022/03/29 08:42:31;;;;;;;34.20;17.95;;;;;;;;;;5005858;28;20056;-70
2022/03/29 08:44:59;;;;;;;46.33;20.35;;;;;;;;;;5006302;28;20061;-70
2022/03/29 08:47:26;;;;;;;41.50;19.20;;;;;;;;;;5005253;28;20049;-70
2022/03/29 08:49:54;;;;;;;41.97;19.20;;;;;;;;;;5008011;28;20061;-70
2022/03/29 08:52:21;;;;;;;39.28;17.98;;;;;;;;;;5019758;28;20073;-70
2022/03/29 08:54:49;;;;;;;37.97;18.10;;;;;;;;;;5005796;28;20054;-70
2022/03/29 08:57:17;;;;;;;38.25;16.67;;;;;;;;;;5005182;28;20064;-70
2022/03/29 08:59:45;;;;;;;37.90;17.35;;;;;;;;;;5005420;28;20053;-70
2022/03/29 09:02:15;;;;;;;39.08;17.02;;;;;;;;;;5005148;28;20160;-70
2022/03/29 09:04:43;;;;;;;44.20;17.10;;;;;;;;;;5005140;28;20096;-70
2022/03/29 09:07:10;;;;;;;43.40;17.50;;;;;;;;;;5001272;28;20485;-70
2022/03/29 09:09:38;;;;;;;34.20;10.43;;;;;;;;;;5006034;28;20056;-70
2022/03/29 09:12:13;;;;;;;35.35;10.23;;;;;;;;;;5000664;28;20504;-70
2022/03/29 09:14:56;;;;;;;34.17;10.20;;;;;;;;;;5006949;28;20081;-70
2022/03/29 09:17:27;;;;;;;37.70;9.68;;;;;;;;;;5002270;28;20053;-70
2022/03/29 09:19:55;;;;;;;33.83;9.35;;;;;;;;;;5006884;28;20049;-70
2022/03/29 09:22:37;;;;;;;37.92;9.30;;;;;;;;;;5003805;28;20493;-70
2022/03/29 09:25:05;;;;;;;39.22;9.98;;;;;;;;;;4999419;28;20053;-70
2022/03/29 09:27:48;;;;;;;38.55;9.70;;;;;;;;;;5002938;28;20563;-70
2022/03/29 09:30:17;;;;;;;43.20;10.45;;;;;;;;;;5003736;28;20065;-70
2022/03/29 09:32:52;;;;;;;36.40;11.02;;;;;;;;;;5002426;28;20058;-70
2022/03/29 09:35:19;;;;;;;37.92;10.82;;;;;;;;;;5005593;28;20445;-70
2022/03/29 09:37:46;;;;;;;39.90;11.15;;;;;;;;;;5006611;28;20046;-70
2022/03/29 09:40:14;;;;;;;43.47;11.32;;;;;;;;;;5004976;28;20061;-70
2022/03/29 09:42:41;;;;;;;33.05;10.40;;;;;;;;;;5004828;28;20052;-70
2022/03/29 09:45:09;;;;;;;39.85;11.70;;;;;;;;;;5006540;28;20061;-70
2022/03/29 09:47:38;;;;;;;32.13;10.68;;;;;;;;;;5004025;28;20202;-70
2022/03/29 09:50:07;;;;;;;32.53;9.70;;;;;;;;;;5009182;28;20042;-70
2022/03/29 09:52:37;;;;;;;27.77;10.07;;;;;;;;;;5000767;28;20783;-71
2022/03/29 09:55:15;;;;;;;30.40;9.18;;;;;;;;;;5006598;28;20767;-71
2022/03/29 09:57:43;;;;;;;30.52;9.88;;;;;;;;;;5004635;28;20050;-71
2022/03/29 10:00:11;;;;;;;38.42;10.35;;;;;;;;;;4999745;28;20058;-71
2022/03/29 10:02:41;;;;;;;31.45;10.20;;;;;;;;;;5003407;28;20057;-71
2022/03/29 10:05:09;;;;;;;36.50;10.50;;;;;;;;;;5001948;28;20568;-70
2022/03/29 10:07:40;;;;;;;33.55;11.13;;;;;;;;;;5000824;28;20046;-70
2022/03/29 10:10:09;;;;;;;33.50;10.55;;;;;;;;;;5000644;28;20069;-70
2022/03/29 10:12:37;;;;;;;32.35;9.32;;;;;;;;;;4998193;28;20049;-70
2022/03/29 10:15:05;;;;;;;28.60;9.65;;;;;;;;;;5000121;28;20041;-70
2022/03/29 10:17:33;;;;;;;32.08;9.85;;;;;;;;;;5003351;28;20053;-71
2022/03/29 10:20:02;;;;;;;29.75;9.38;;;;;;;;;;5008044;28;20142;-71
2022/03/29 10:22:29;;;;;;;26.58;8.88;;;;;;;;;;5006895;28;20053;-71
2022/03/29 10:24:56;;;;;;;32.67;10.43;;;;;;;;;;5003873;28;20046;-71
2022/03/29 10:27:24;;;;;;;29.70;10.07;;;;;;;;;;5006700;28;20057;-71
2022/03/29 10:29:51;;;;;;;28.08;9.52;;;;;;;;;;5005328;28;20051;-71
2022/03/29 10:32:32;;;;;;;33.05;9.63;;;;;;;;;;5009685;28;20572;-71
2022/03/29 10:35:08;;;;;;;34.35;9.35;;;;;;;;;;5007871;28;20132;-71
2022/03/29 10:37:56;;;;;;;31.23;8.95;;;;;;;;;;5006782;28;20103;-71
2022/03/29 10:40:35;;;;;;;30.05;9.05;;;;;;;;;;5007238;28;20057;-71
2022/03/29 10:43:25;;;;;;;30.65;9.35;;;;;;;;;;5007536;28;20058;-71
2022/03/29 10:45:53;;;;;;;27.13;8.85;;;;;;;;;;5005965;28;20062;-71
2022/03/29 10:48:20;;;;;;;29.80;10.40;;;;;;;;;;5010362;28;20050;-71
2022/03/29 10:50:59;;;;;;;31.52;9.80;;;;;;;;;;5006776;28;20153;-71
2022/03/29 10:53:27;;;;;;;29.40;9.38;;;;;;;;;;5004944;28;20053;-71
2022/03/29 10:56:13;;;;;;;29.38;9.25;;;;;;;;;;5001278;28;20054;-71
2022/03/29 10:59:09;;;;;;;32.42;9.13;;;;;;;;;;5003745;28;20420;-71
2022/03/29 11:01:38;;;;;;;26.23;9.00;;;;;;;;;;4999887;28;20057;-71
2022/03/29 11:04:07;;;;;;;26.50;10.00;;;;;;;;;;4997761;28;20108;-71
2022/03/29 11:06:36;;;;;;;26.58;9.30;;;;;;;;;;5007518;28;20556;-71
2022/03/29 11:09:05;;;;;;;26.17;9.02;;;;;;;;;;5007186;28;20141;-71
2022/03/29 11:11:39;;;;;;;26.70;9.63;;;;;;;;;;5007545;28;20073;-71
2022/03/29 11:14:25;;;;;;;22.27;8.55;;;;;;;;;;5005283;28;20671;-71
2022/03/29 11:16:52;;;;;;;29.42;9.75;;;;;;;;;;5008732;28;20064;-71
2022/03/29 11:19:34;;;;;;;34.97;9.00;;;;;;;;;;5010980;28;20111;-71
2022/03/29 11:22:22;;;;;;;33.70;8.45;;;;;;;;;;5003538;28;20085;-71
2022/03/29 11:24:50;;;;;;;27.95;8.13;;;;;;;;;;5011173;28;20500;-71
2022/03/29 11:27:22;;;;;;;29.05;7.63;;;;;;;;;;5004462;28;20496;-70
2022/03/29 11:29:49;;;;;;;27.45;7.38;;;;;;;;;;5009286;28;20064;-70
2022/03/29 11:32:17;;;;;;;27.02;8.27;;;;;;;;;;5006771;28;20057;-70
2022/03/29 11:34:44;;;;;;;38.13;8.07;;;;;;;;;;5007886;28;20058;-70
2022/03/29 11:40:06;;;;;;;33.03;8.45;;;;;;;;;;5118239;27;21055;-69
2022/03/29 11:42:44;;;;;;;33.63;7.80;;;;;;;;;;5105288;27;20047;-69
2022/03/29 11:45:11;;;;;;;33.72;7.90;;;;;;;;;;5101116;28;20472;-69
2022/03/29 11:47:38;;;;;;;30.13;7.85;;;;;;;;;;5094051;28;20137;-69
2022/03/29 11:50:06;;;;;;;29.42;7.75;;;;;;;;;;5095397;28;20112;-69
2022/03/29 11:52:38;;;;;;;30.08;9.02;;;;;;;;;;5090921;28;20429;-69
2022/03/29 11:55:17;;;;;;;27.08;8.23;;;;;;;;;;5093785;28;20155;-69
2022/03/29 11:57:45;;;;;;;26.05;8.02;;;;;;;;;;5088535;28;20411;-69
2022/03/29 12:00:23;;;;;;;29.73;8.60;;;;;;;;;;5090775;28;20058;-69
2022/03/29 12:02:50;;;;;;;29.70;8.52;;;;;;;;;;5091052;28;20063;-69
2022/03/29 12:05:21;;;;;;;25.20;8.35;;;;;;;;;;5090956;28;20490;-69
2022/03/29 12:07:48;;;;;;;25.27;8.18;;;;;;;;;;5090906;28;20044;-69
2022/03/29 12:10:28;;;;;;;28.48;8.90;;;;;;;;;;5087923;28;20056;-70
2022/03/29 12:12:55;;;;;;;32.03;8.05;;;;;;;;;;5090936;28;20152;-70
2022/03/29 12:15:23;;;;;;;27.50;8.25;;;;;;;;;;5093438;28;20040;-70
2022/03/29 12:18:40;;;;;;;23.00;8.23;;;;;;;;;;5125613;27;20495;-70
2022/03/29 12:20:41;;;;;;;21.80;7.50;;;;;;;;;;5128664;27;20044;-70
2022/03/29 12:23:16;;;;;;;27.13;8.80;;;;;;;;;;5092465;28;20048;-70
2022/03/29 12:25:45;;;;;;;23.80;8.15;;;;;;;;;;5100714;28;20130;-70
2022/03/29 12:28:13;;;;;;;26.55;8.48;;;;;;;;;;5100205;28;20047;-70
2022/03/29 12:30:40;;;;;;;26.08;8.70;;;;;;;;;;5098517;28;20821;-70
2022/03/29 12:33:08;;;;;;;24.10;8.27;;;;;;;;;;5102847;28;20532;-70
2022/03/29 12:35:35;;;;;;;26.67;8.98;;;;;;;;;;5097927;28;20062;-70
2022/03/29 12:38:03;;;;;;;29.77;9.27;;;;;;;;;;5091043;28;20495;-70
2022/03/29 12:40:30;;;;;;;28.17;8.88;;;;;;;;;;5094396;28;20054;-70
2022/03/29 12:43:04;;;;;;;23.17;8.73;;;;;;;;;;5097792;28;20117;-70
2022/03/29 12:45:31;;;;;;;27.40;9.13;;;;;;;;;;5105408;28;20048;-70
2022/03/29 12:47:59;;;;;;;24.85;9.20;;;;;;;;;;5094876;28;20129;-71
2022/03/29 12:50:27;;;;;;;27.63;9.23;;;;;;;;;;5083279;28;20056;-71
2022/03/29 12:52:54;;;;;;;27.77;9.27;;;;;;;;;;5082133;28;20044;-71
2022/03/29 12:55:21;;;;;;;25.75;9.27;;;;;;;;;;5080857;28;20056;-71
2022/03/29 12:57:49;;;;;;;27.88;9.63;;;;;;;;;;5087577;28;20441;-71
2022/03/29 13:00:18;;;;;;;21.70;9.27;;;;;;;;;;5086622;28;20055;-71
2022/03/29 13:02:49;;;;;;;27.98;9.43;;;;;;;;;;5092959;28;20634;-71
2022/03/29 13:05:18;;;;;;;19.83;8.73;;;;;;;;;;5088444;28;20145;-71
2022/03/29 13:07:48;;;;;;;20.10;9.52;;;;;;;;;;5088301;28;20129;-71
2022/03/29 13:10:16;;;;;;;21.45;9.98;;;;;;;;;;5088501;28;20123;-71
2022/03/29 13:12:57;;;;;;;24.05;9.70;;;;;;;;;;5088185;28;20117;-71
2022/03/29 13:15:40;;;;;;;20.52;9.50;;;;;;;;;;5086709;28;20063;-71
2022/03/29 13:18:07;;;;;;;;;;;;;;;;;;5084162;28;20168;-71
2022/03/29 13:20:37;;;;;;;24.25;9.98;;;;;;;;;;5086838;28;19930;-71
2022/03/29 13:23:04;;;;;;;22.05;10.18;;;;;;;;;;5084998;28;20130;-72
2022/03/29 13:25:33;;;;;;;21.45;9.48;;;;;;;;;;5086889;28;20047;-71
2022/03/29 13:28:00;;;;;;;17.95;9.20;;;;;;;;;;5088620;28;20075;-71
2022/03/29 13:30:29;;;;;;;21.73;9.73;;;;;;;;;;5089110;28;20040;-71
2022/03/29 13:32:57;;;;;;;21.38;10.25;;;;;;;;;;5084787;28;20367;-71
2022/03/29 13:35:24;;;;;;;16.92;9.38;;;;;;;;;;5089135;28;20067;-71
2022/03/29 13:37:52;;;;;;;17.83;9.55;;;;;;;;;;5087567;28;20052;-71
2022/03/29 13:40:19;;;;;;;18.02;9.52;;;;;;;;;;5092171;28;20054;-71
2022/03/29 13:42:46;;;;;;;19.65;10.20;;;;;;;;;;5086461;28;20048;-71
2022/03/29 13:45:13;;;;;;;19.23;9.80;;;;;;;;;;5087267;28;20052;-71
2022/03/29 13:47:41;;;;;;;17.77;9.60;;;;;;;;;;5085115;28;20047;-71
2022/03/29 13:50:10;;;;;;;17.95;9.38;;;;;;;;;;5079907;28;20056;-71
2022/03/29 13:52:37;;;;;;;20.98;10.35;;;;;;;;;;5086016;28;20059;-71
2022/03/29 13:55:05;;;;;;;18.05;9.95;;;;;;;;;;5081881;28;20130;-71
2022/03/29 13:57:32;;;;;;;18.23;9.02;;;;;;;;;;5087546;28;20047;-72
2022/03/29 13:59:59;;;;;;;19.75;10.02;;;;;;;;;;5091481;28;20056;-72
2022/03/29 14:02:26;;;;;;;18.00;9.35;;;;;;;;;;5082569;28;20059;-72
2022/03/29 14:04:53;;;;;;;16.00;9.52;;;;;;;;;;5083968;28;20101;-71
2022/03/29 14:07:22;;;;;;;16.83;9.27;;;;;;;;;;5080678;28;20070;-71
2022/03/29 14:09:49;;;;;;;18.63;9.43;;;;;;;;;;5084804;28;20047;-72
2022/03/29 14:12:16;;;;;;;16.58;9.70;;;;;;;;;;5086366;28;20051;-71
2022/03/29 14:14:44;;;;;;;23.17;11.23;;;;;;;;;;5077695;28;20039;-71
2022/03/29 14:17:11;;;;;;;19.63;9.27;;;;;;;;;;5081726;28;20054;-71
2022/03/29 14:19:38;;;;;;;21.63;10.30;;;;;;;;;;5085563;28;20041;-70
2022/03/29 14:22:05;;;;;;;22.08;10.20;;;;;;;;;;5083288;28;20541;-71
2022/03/29 14:24:34;;;;;;;25.52;10.13;;;;;;;;;;5087952;28;20721;-71
2022/03/29 14:27:01;;;;;;;32.70;10.05;;;;;;;;;;5085282;28;20062;-71
2022/03/29 14:29:31;;;;;;;23.92;9.52;;;;;;;;;;5081380;28;20122;-71
2022/03/29 14:32:00;;;;;;;19.65;9.60;;;;;;;;;;5086850;28;20127;-71
2022/03/29 14:34:27;;;;;;;21.05;10.48;;;;;;;;;;5085678;28;20055;-70
2022/03/29 14:36:54;;;;;;;19.00;8.68;;;;;;;;;;5086581;28;20558;-70
2022/03/29 14:39:22;;;;;;;67.15;11.40;;;;;;;;;;5086144;28;20048;-71
2022/03/29 14:41:51;;;;;;;22.70;10.23;;;;;;;;;;5085642;28;20105;-71